Home > Products > Valid Products > TAF

000
FTUS42 KGSP 281733
TAFAVL
TAF
KAVL 281733Z 2818/2918 35011KT P6SM SCT250
     FM282300 00000KT P6SM SCT250
     FM291600 18006KT P6SM BKN250=



000
FTUS42 KGSP 281733
TAFCLT
TAF
KCLT 281733Z 2818/2918 32003KT P6SM SCT250
     FM282000 22003KT P6SM BKN250
     FM290100 00000KT P6SM SCT250
     FM291500 20007KT P6SM BKN250=



000
FTUS42 KGSP 281733
TAFGSP
TAF
KGSP 281733Z 2818/2918 23004KT P6SM SCT250
     FM290100 00000KT P6SM SCT250
     FM291500 22007KT P6SM BKN250=



000
FTUS42 KGSP 281733
TAFAVL
TAF
KAVL 281733Z 2818/2918 35011KT P6SM SCT250
     FM282300 00000KT P6SM SCT250
     FM291600 18006KT P6SM BKN250=



000
FTUS42 KGSP 281733
TAFCLT
TAF
KCLT 281733Z 2818/2918 32003KT P6SM SCT250
     FM282000 22003KT P6SM BKN250
     FM290100 00000KT P6SM SCT250
     FM291500 20007KT P6SM BKN250=



000
FTUS42 KGSP 281503 AAA
TAFCLT
TAF AMD
KCLT 281503Z 2815/2912 01008KT P6SM SCT250
     FM281900 22003KT P6SM BKN250
     FM291000 00000KT P6SM BKN250=



000
FTUS42 KGSP 281503 AAA
TAFCLT
TAF AMD
KCLT 281503Z 2815/2912 01008KT P6SM SCT250
     FM281900 22003KT P6SM BKN250
     FM291000 00000KT P6SM BKN250=



000
FTUS42 KGSP 281120
TAFAVL
TAF
KAVL 281120Z 2812/2912 34009KT P6SM FEW030
     FM281400 33003KT P6SM SCT200
     FM282000 00000KT P6SM FEW200=



000
FTUS42 KGSP 281120
TAFGSP
TAF
KGSP 281120Z 2812/2912 34003KT P6SM SKC
     FM281800 23004KT P6SM FEW200
     FM290800 00000KT P6SM FEW200=



000
FTUS42 KGSP 281120
TAFCLT
TAF
KCLT 281120Z 2812/2912 33005KT P6SM SKC
     FM281900 24003KT P6SM FEW200
     FM291000 00000KT P6SM BKN200=



000
FTUS42 KGSP 281120
TAFCLT
TAF
KCLT 281120Z 2812/2912 33005KT P6SM SKC
     FM281900 24003KT P6SM FEW200
     FM291000 00000KT P6SM BKN200=



000
FTUS42 KGSP 281120
TAFAVL
TAF
KAVL 281120Z 2812/2912 34009KT P6SM FEW030
     FM281400 33003KT P6SM SCT200
     FM282000 00000KT P6SM FEW200=



000
FTUS42 KGSP 280847 AAA
TAFCLT
TAF AMD
KCLT 280847Z 2809/2906 33004KT P6SM SKC
     FM281400 33003KT P6SM FEW200
     FM282100 24005KT P6SM FEW250=



000
FTUS42 KGSP 280847 AAA
TAFCLT
TAF AMD
KCLT 280847Z 2809/2906 33004KT P6SM SKC
     FM281400 33003KT P6SM FEW200
     FM282100 24005KT P6SM FEW250=



000
FTUS42 KGSP 280539
TAFAVL
TAF
KAVL 280539Z 2806/2906 35009G19KT P6SM BKN045
     FM281100 34008KT P6SM SCT190
     FM281800 33004KT P6SM SCT090=



000
FTUS42 KGSP 280539
TAFCLT
TAF
KCLT 280539Z 2806/2906 33007KT P6SM SKC
     FM281400 33003KT P6SM FEW200
     FM282200 24005KT P6SM FEW250=



000
FTUS42 KGSP 280539
TAFAVL
TAF
KAVL 280539Z 2806/2906 35009G19KT P6SM BKN045
     FM281100 34008KT P6SM SCT190
     FM281800 33004KT P6SM SCT090=



000
FTUS42 KGSP 280539
TAFCLT
TAF
KCLT 280539Z 2806/2906 33007KT P6SM SKC
     FM281400 33003KT P6SM FEW200
     FM282200 24005KT P6SM FEW250=



000
FTUS42 KGSP 280539
TAFGSP
TAF
KGSP 280539Z 2806/2906 33006KT P6SM SKC
     FM281700 21003KT P6SM FEW200=



000
FTUS42 KGSP 272338
TAFGSP
TAF
KGSP 272338Z 2800/2824 36005KT P6SM FEW060
     FM281000 35003KT P6SM FEW250
     FM281900 21003KT P6SM FEW150=



000
FTUS42 KGSP 272338
TAFCLT
TAF
KCLT 272338Z 2800/2824 31011G15KT P6SM BKN060
     FM280200 33007KT P6SM FEW060
     FM281000 33003KT P6SM FEW250
     FM282100 24005KT P6SM FEW070=



000
FTUS42 KGSP 272338
TAFAVL
TAF
KAVL 272338Z 2800/2824 35012G18KT P6SM SCT025 BKN035 OVC045
      TEMPO 2802/2806 BKN025
     FM281000 34010KT P6SM SCT040
     FM281700 34007KT P6SM SCT090=



000
FTUS42 KGSP 272338
TAFAVL
TAF
KAVL 272338Z 2800/2824 35012G18KT P6SM SCT025 BKN035 OVC045
      TEMPO 2802/2806 BKN025
     FM281000 34010KT P6SM SCT040
     FM281700 34007KT P6SM SCT090=



000
FTUS42 KGSP 272338
TAFCLT
TAF
KCLT 272338Z 2800/2824 31011G15KT P6SM BKN060
     FM280200 33007KT P6SM FEW060
     FM281000 33003KT P6SM FEW250
     FM282100 24005KT P6SM FEW070=



000
FTUS42 KGSP 272122 AAA
TAFCLT
TAF AMD
KCLT 272122Z 2721/2818 31011G20KT P6SM BKN060
     FM272300 33007KT P6SM FEW060
     FM281100 35005KT P6SM FEW250=



000
FTUS42 KGSP 272122 AAA
TAFCLT
TAF AMD
KCLT 272122Z 2721/2818 31011G20KT P6SM BKN060
     FM272300 33007KT P6SM FEW060
     FM281100 35005KT P6SM FEW250=



000
FTUS42 KGSP 271927 AAA
TAFAVL
TAF AMD
KAVL 271927Z 2719/2818 34014G25KT P6SM SCT025 BKN035
      TEMPO 2719/2723 -SHSN BKN025 OVC035
     FM280900 34011G20KT P6SM SCT040
     FM281600 36006KT P6SM SCT080=



000
FTUS42 KGSP 271927 AAA
TAFAVL
TAF AMD
KAVL 271927Z 2719/2818 34014G25KT P6SM SCT025 BKN035
      TEMPO 2719/2723 -SHSN BKN025 OVC035
     FM280900 34011G20KT P6SM SCT040
     FM281600 36006KT P6SM SCT080=



000
FTUS42 KGSP 271733
TAFGSP
TAF
KGSP 271733Z 2718/2818 31010G18KT P6SM SCT060
     FM280000 34007KT P6SM FEW250
     FM281200 35004KT P6SM FEW250=



000
FTUS42 KGSP 271733
TAFCLT
TAF
KCLT 271733Z 2718/2818 31011G20KT P6SM BKN060
     FM280000 33007KT P6SM FEW060
     FM281100 35005KT P6SM FEW250=



000
FTUS42 KGSP 271733
TAFCLT
TAF
KCLT 271733Z 2718/2818 31011G20KT P6SM BKN060
     FM280000 33007KT P6SM FEW060
     FM281100 35005KT P6SM FEW250=



000
FTUS42 KGSP 271733
TAFAVL
TAF
KAVL 271733Z 2718/2818 34014G25KT P6SM BKN035
     FM280900 34011G20KT P6SM SCT040
     FM281600 36006KT P6SM SCT080=



000
FTUS42 KGSP 271733
TAFAVL
TAF
KAVL 271733Z 2718/2818 34014G25KT P6SM BKN035
     FM280900 34011G20KT P6SM SCT040
     FM281600 36006KT P6SM SCT080=



000
FTUS42 KGSP 271526 AAA
TAFAVL
TAF AMD
KAVL 271526Z 2715/2812 34011KT P6SM SCT025 OVC035
      TEMPO 2715/2717 -SHSN BKN026 OVC035
     FM271700 34015G24KT P6SM BKN035
     FM272300 34012KT P6SM BKN035
     FM280800 34011KT P6SM SCT040=



000
FTUS42 KGSP 271526 AAA
TAFAVL
TAF AMD
KAVL 271526Z 2715/2812 34011KT P6SM SCT025 OVC035
      TEMPO 2715/2717 -SHSN BKN026 OVC035
     FM271700 34015G24KT P6SM BKN035
     FM272300 34012KT P6SM BKN035
     FM280800 34011KT P6SM SCT040=



000
FTUS42 KGSP 271501 AAA
TAFCLT
TAF AMD
KCLT 271501Z 2715/2812 31009KT P6SM FEW060
     FM271700 32011G19KT P6SM FEW060
     FM280000 34005KT P6SM SKC=



000
FTUS42 KGSP 271501 AAA
TAFCLT
TAF AMD
KCLT 271501Z 2715/2812 31009KT P6SM FEW060
     FM271700 32011G19KT P6SM FEW060
     FM280000 34005KT P6SM SKC=



000
FTUS42 KGSP 271138
TAFCLT
TAF
KCLT 271138Z 2712/2812 24005KT P6SM FEW080
     FM271600 30009KT P6SM SCT060
     FM280300 34005KT P6SM SKC=



000
FTUS42 KGSP 271138
TAFAVL
TAF
KAVL 271138Z 2712/2812 34007KT P6SM SCT040
     FM271700 34015G24KT P6SM BKN035
     FM272300 34012KT P6SM BKN035
     FM280800 34011KT P6SM SCT040=



000
FTUS42 KGSP 271138
TAFGSP
TAF
KGSP 271138Z 2712/2812 25008KT P6SM FEW250
     FM271700 30012KT P6SM FEW250
     FM272300 32008KT P6SM SKC
     FM280400 33004KT P6SM SKC=



000
FTUS42 KGSP 271138
TAFCLT
TAF
KCLT 271138Z 2712/2812 24005KT P6SM FEW080
     FM271600 30009KT P6SM SCT060
     FM280300 34005KT P6SM SKC=



000
FTUS42 KGSP 271138
TAFAVL
TAF
KAVL 271138Z 2712/2812 34007KT P6SM SCT040
     FM271700 34015G24KT P6SM BKN035
     FM272300 34012KT P6SM BKN035
     FM280800 34011KT P6SM SCT040=



000
FTUS42 KGSP 271054 AAA
TAFCLT
TAF AMD
KCLT 271054Z 2711/2806 21003KT P6SM SCT090
     FM271400 28007KT P6SM BKN080
     FM271600 30010KT P6SM SCT080
     FM280300 33006KT P6SM FEW250=



000
FTUS42 KGSP 271054 AAA
TAFCLT
TAF AMD
KCLT 271054Z 2711/2806 21003KT P6SM SCT090
     FM271400 28007KT P6SM BKN080
     FM271600 30010KT P6SM SCT080
     FM280300 33006KT P6SM FEW250=



000
FTUS42 KGSP 271038 AAA
TAFAVL
TAF AMD
KAVL 271038Z 2711/2806 36010KT P6SM FEW008 OVC020
      TEMPO 2711/2713 BKN008 OVC020
     FM271500 32013KT P6SM BKN040
     FM272000 32014KT P6SM SCT250=



000
FTUS42 KGSP 271038 AAA
TAFAVL
TAF AMD
KAVL 271038Z 2711/2806 36010KT P6SM FEW008 OVC020
      TEMPO 2711/2713 BKN008 OVC020
     FM271500 32013KT P6SM BKN040
     FM272000 32014KT P6SM SCT250=



000
FTUS42 KGSP 270540
TAFCLT
TAF
KCLT 270540Z 2706/2806 16003KT P6SM BKN090
     FM271400 28007KT P6SM BKN080
     FM271600 30010KT P6SM SCT080
     FM280300 33006KT P6SM FEW250=



000
FTUS42 KGSP 270540
TAFGSP
TAF
KGSP 270540Z 2706/2806 22005KT P6SM OVC080
     FM270900 23009KT P6SM SCT250
     FM271400 27009KT P6SM FEW250
     FM271700 31011KT P6SM FEW250=



000
FTUS42 KGSP 270540
TAFAVL
TAF
KAVL 270540Z 2706/2806 21003KT P6SM VCSH SCT050 OVC070
     FM270900 31008KT P6SM BKN035
     FM271500 32013KT P6SM BKN040
     FM272000 32014KT P6SM SCT250=



000
FTUS42 KGSP 270540
TAFCLT
TAF
KCLT 270540Z 2706/2806 16003KT P6SM BKN090
     FM271400 28007KT P6SM BKN080
     FM271600 30010KT P6SM SCT080
     FM280300 33006KT P6SM FEW250=



000
FTUS42 KGSP 270540
TAFAVL
TAF
KAVL 270540Z 2706/2806 21003KT P6SM VCSH SCT050 OVC070
     FM270900 31008KT P6SM BKN035
     FM271500 32013KT P6SM BKN040
     FM272000 32014KT P6SM SCT250=



000
FTUS42 KGSP 270043 AAA
TAFGSP
TAF AMD
KGSP 270043Z 2701/2724 22007KT P6SM SCT050 BKN110
     FM270800 24005KT P6SM SCT110
     FM271200 25008KT P6SM SCT050
     FM271600 29012G18KT P6SM FEW050
     FM272200 34008KT P6SM SCT250=



000
FTUS42 KGSP 262340
TAFAVL
TAF
KAVL 262340Z 2700/2724 36005KT P6SM SCT050 BKN100
     FM270700 31009KT P6SM SCT100 BKN250
     FM271500 32013G20KT P6SM BKN040
     FM272100 32013KT P6SM SCT250=



000
FTUS42 KGSP 262340
TAFCLT
TAF
KCLT 262340Z 2700/2724 16004KT P6SM SCT035 SCT070
      TEMPO 2700/2702 BKN035
     FM270200 22004KT P6SM SCT040 BKN100
     FM271000 24006KT P6SM BKN050
     FM271600 30012G18KT P6SM SCT040 BKN120=



000
FTUS42 KGSP 262340
TAFAVL
TAF
KAVL 262340Z 2700/2724 36005KT P6SM SCT050 BKN100
     FM270700 31009KT P6SM SCT100 BKN250
     FM271500 32013G20KT P6SM BKN040
     FM272100 32013KT P6SM SCT250=



000
FTUS42 KGSP 262340
TAFGSP
TAF
KGSP 262340Z 2700/2724 22007KT P6SM SCT050 BKN110
     FM270800 24005KT P6SM SCT110
     FM271200 25008KT P6SM SCT050
     FM271600 29010KT P6SM FEW250
     FM272300 34008KT P6SM FEW250=



000
FTUS42 KGSP 262340
TAFCLT
TAF
KCLT 262340Z 2700/2724 16004KT P6SM SCT035 SCT070
      TEMPO 2700/2702 BKN035
     FM270200 22004KT P6SM SCT040 BKN100
     FM271000 24006KT P6SM BKN050
     FM271600 30012G18KT P6SM SCT040 BKN120=



000
FTUS42 KGSP 262110 AAB
TAFCLT
TAF AMD
KCLT 262110Z 2621/2718 33004KT P6SM SCT035
      TEMPO 2621/2624 BKN035
     FM270000 26004KT P6SM BKN040
     FM270900 23004KT P6SM SCT025 OVC050
     FM271600 30010G17KT P6SM SCT040=



000
FTUS42 KGSP 262110 AAB
TAFCLT
TAF AMD
KCLT 262110Z 2621/2718 33004KT P6SM SCT035
      TEMPO 2621/2624 BKN035
     FM270000 26004KT P6SM BKN040
     FM270900 23004KT P6SM SCT025 OVC050
     FM271600 30010G17KT P6SM SCT040=



000
FTUS42 KGSP 261904 AAA
TAFAVL
TAF AMD
KAVL 261904Z 2619/2718 34007KT P6SM SCT025 BKN035
     FM270200 VRB03KT P6SM SCT030 BKN040
     FM270600 32005KT P6SM VCSH BKN020
     FM271400 33012KT P6SM BKN030
     FM271600 32014G24KT P6SM BKN040=



000
FTUS42 KGSP 261903 AAA
TAFCLT
TAF AMD
KCLT 261903Z 2619/2718 32007KT P6SM BKN025
     FM262100 28004KT P6SM SCT025 BKN040
     FM270000 26004KT P6SM BKN040
     FM270900 23004KT P6SM SCT025 OVC050
     FM271600 30010G17KT P6SM SCT040=



000
FTUS42 KGSP 261903 AAB
TAFGSP
TAF AMD
KGSP 261903Z 2619/2718 25004KT P6SM SCT025 BKN035
     FM262200 23006KT P6SM SCT040 BKN120
     FM270600 22007KT P6SM SCT030 BKN040
     FM271600 29010G17KT P6SM SCT040=



000
FTUS42 KGSP 261740
TAFGSP
TAF
KGSP 261740Z 2618/2718 25004KT P6SM BKN025
     FM262200 23006KT P6SM SCT040 BKN120
     FM270600 22007KT P6SM SCT030 BKN040
     FM271600 29010G17KT P6SM SCT040=



000
FTUS42 KGSP 261740
TAFAVL
TAF
KAVL 261740Z 2618/2718 35007KT P6SM BKN015
     FM270200 VRB03KT P6SM SCT020 BKN040
     FM270600 32005KT P6SM VCSH BKN020
     FM271400 33012KT P6SM BKN030
     FM271600 32014G24KT P6SM BKN040=



000
FTUS42 KGSP 261740
TAFCLT
TAF
KCLT 261740Z 2618/2718 33007KT P6SM OVC018
     FM262100 28004KT P6SM SCT025 BKN040
     FM270000 26004KT P6SM BKN040
     FM270900 23004KT P6SM SCT025 OVC050
     FM271600 30010G17KT P6SM SCT040=



000
FTUS42 KGSP 261740
TAFCLT
TAF
KCLT 261740Z 2618/2718 33007KT P6SM OVC018
     FM262100 28004KT P6SM SCT025 BKN040
     FM270000 26004KT P6SM BKN040
     FM270900 23004KT P6SM SCT025 OVC050
     FM271600 30010G17KT P6SM SCT040=



000
FTUS42 KGSP 261740
TAFAVL
TAF
KAVL 261740Z 2618/2718 35007KT P6SM BKN015
     FM270200 VRB03KT P6SM SCT020 BKN040
     FM270600 32005KT P6SM VCSH BKN020
     FM271400 33012KT P6SM BKN030
     FM271600 32014G24KT P6SM BKN040=



000
FTUS42 KGSP 261606 AAD
TAFGSP
TAF AMD
KGSP 261606Z 2616/2712 32006KT P6SM SCT020 BKN060
      TEMPO 2616/2618 BKN020
     FM261800 28007KT P6SM FEW050 SCT200
     FM262000 24005KT P6SM SCT060
     FM270900 24007KT P6SM SCT200=



000
FTUS42 KGSP 261604 AAC
TAFCLT
TAF AMD
KCLT 261604Z 2616/2712 34007KT P6SM SCT015 BKN050 OVC120
      TEMPO 2616/2618 BKN015 OVC050
     FM261800 30008KT P6SM SCT025 BKN050
     FM270000 00000KT P6SM BKN250=



000
FTUS42 KGSP 261604 AAC
TAFCLT
TAF AMD
KCLT 261604Z 2616/2712 34007KT P6SM SCT015 BKN050 OVC120
      TEMPO 2616/2618 BKN015 OVC050
     FM261800 30008KT P6SM SCT025 BKN050
     FM270000 00000KT P6SM BKN250=



000
FTUS42 KGSP 261602 AAC
TAFAVL
TAF AMD
KAVL 261602Z 2616/2712 33008KT P6SM SCT015 BKN025
      TEMPO 2616/2618 BKN015
     FM262000 33008KT P6SM SCT040 BKN200
     FM270000 32003KT P6SM BKN150
     FM270500 VRB03KT P6SM OVC070=



000
FTUS42 KGSP 261602 AAC
TAFAVL
TAF AMD
KAVL 261602Z 2616/2712 33008KT P6SM SCT015 BKN025
      TEMPO 2616/2618 BKN015
     FM262000 33008KT P6SM SCT040 BKN200
     FM270000 32003KT P6SM BKN150
     FM270500 VRB03KT P6SM OVC070=



000
FTUS42 KGSP 261503 AAB
TAFCLT
TAF AMD
KCLT 261503Z 2615/2712 31008KT 6SM -RA BR SCT007 OVC015
      TEMPO 2615/2616 4SM RA BR OVC007
     FM261600 31008KT 6SM BR SCT007 OVC020
     FM261700 31008KT P6SM OVC030
     FM261800 30008KT P6SM BKN050
     FM270000 00000KT P6SM BKN250=



000
FTUS42 KGSP 261434 AAD
TAFGSP
TAF AMD
KGSP 261434Z 2615/2712 33004KT P6SM FEW006 SCT020 OVC120
      TEMPO 2615/2616 BKN006
     FM261600 30007KT P6SM FEW050 SCT150
     FM262000 24005KT P6SM SCT060
     FM270900 24007KT P6SM SCT200=



000
FTUS42 KGSP 261415 AAB
TAFAVL
TAF AMD
KAVL 261415Z 2614/2712 32007KT P6SM BKN120
     FM270000 32003KT P6SM BKN150
     FM270500 VRB03KT P6SM OVC070=



000
FTUS42 KGSP 261415 AAB
TAFAVL
TAF AMD
KAVL 261415Z 2614/2712 32007KT P6SM BKN120
     FM270000 32003KT P6SM BKN150
     FM270500 VRB03KT P6SM OVC070=



000
FTUS42 KGSP 261413 AAC
TAFGSP
TAF AMD
KGSP 261413Z 2614/2712 35004KT P6SM SCT020 OVC120
     FM261600 30007KT P6SM SCT150
     FM262000 24005KT P6SM SCT060
     FM270900 24007KT P6SM SCT200=



000
FTUS42 KGSP 261255 AAA
TAFCLT
TAF AMD
KCLT 261255Z 2613/2712 01009KT 6SM -RA BR SCT008 OVC025
      TEMPO 2613/2615 5SM RA BR OVC008
     FM261500 34011KT 5SM -RA BR OVC015
     FM261700 31008KT P6SM OVC030
     FM261800 30008KT P6SM OVC050
     FM270000 00000KT P6SM BKN240=



000
FTUS42 KGSP 261255 AAA
TAFCLT
TAF AMD
KCLT 261255Z 2613/2712 01009KT 6SM -RA BR SCT008 OVC025
      TEMPO 2613/2615 5SM RA BR OVC008
     FM261500 34011KT 5SM -RA BR OVC015
     FM261700 31008KT P6SM OVC030
     FM261800 30008KT P6SM OVC050
     FM270000 00000KT P6SM BKN240=



000
FTUS42 KGSP 261232 AAA
TAFAVL
TAF AMD
KAVL 261232Z 2613/2712 34006KT 6SM -RA BR SCT015 OVC030
      TEMPO 2613/2614 5SM BR FEW008 BKN015 OVC030
     FM261500 31007KT P6SM BKN045
     FM270000 32003KT P6SM BKN160
     FM270500 VRB03KT P6SM OVC070=



000
FTUS42 KGSP 261232 AAA
TAFAVL
TAF AMD
KAVL 261232Z 2613/2712 34006KT 6SM -RA BR SCT015 OVC030
      TEMPO 2613/2614 5SM BR FEW008 BKN015 OVC030
     FM261500 31007KT P6SM BKN045
     FM270000 32003KT P6SM BKN160
     FM270500 VRB03KT P6SM OVC070=



000
FTUS42 KGSP 261140
TAFCLT
TAF
KCLT 261140Z 2612/2712 36010KT 5SM -RA BR SCT005 OVC050
      TEMPO 2612/2615 BKN005 OVC045
     FM261500 34011KT 5SM -RA BR OVC014
     FM261700 31008KT P6SM OVC017
     FM261800 30008KT P6SM OVC050
     FM270000 00000KT P6SM BKN240=



000
FTUS42 KGSP 261140
TAFGSP
TAF
KGSP 261140Z 2612/2712 35004KT 6SM -RA BR FEW006 OVC050
      TEMPO 2612/2614 5SM RA BR BKN006 OVC045
     FM261400 31007KT P6SM -RA OVC022
     FM261600 30007KT P6SM BKN045
     FM262000 24005KT P6SM SCT060
     FM270900 24007KT P6SM SCT200=



000
FTUS42 KGSP 261140
TAFAVL
TAF
KAVL 261140Z 2612/2712 32004KT 6SM -RA BR OVC045
      TEMPO 2612/2614 4SM RA BR FEW008 SCT015 OVC035
     FM261500 31007KT P6SM BKN045
     FM270000 32003KT P6SM BKN160
     FM270500 VRB03KT P6SM OVC070=



000
FTUS42 KGSP 261140
TAFCLT
TAF
KCLT 261140Z 2612/2712 36010KT 5SM -RA BR SCT005 OVC050
      TEMPO 2612/2615 BKN005 OVC045
     FM261500 34011KT 5SM -RA BR OVC014
     FM261700 31008KT P6SM OVC017
     FM261800 30008KT P6SM OVC050
     FM270000 00000KT P6SM BKN240=



000
FTUS42 KGSP 261140
TAFAVL
TAF
KAVL 261140Z 2612/2712 32004KT 6SM -RA BR OVC045
      TEMPO 2612/2614 4SM RA BR FEW008 SCT015 OVC035
     FM261500 31007KT P6SM BKN045
     FM270000 32003KT P6SM BKN160
     FM270500 VRB03KT P6SM OVC070=



000
FTUS42 KGSP 260908 AAB
TAFCLT
TAF AMD
KCLT 260908Z 2609/2706 01008KT 6SM -RA BR BKN050 OVC090
      TEMPO 2610/2612 4SM RA BR SCT008 BKN014 OVC050
     FM261200 33009KT 4SM -RA BR SCT008 OVC014
     FM261800 30008KT P6SM OVC050
     FM270100 21004KT P6SM BKN240=



000
FTUS42 KGSP 260908 AAB
TAFCLT
TAF AMD
KCLT 260908Z 2609/2706 01008KT 6SM -RA BR BKN050 OVC090
      TEMPO 2610/2612 4SM RA BR SCT008 BKN014 OVC050
     FM261200 33009KT 4SM -RA BR SCT008 OVC014
     FM261800 30008KT P6SM OVC050
     FM270100 21004KT P6SM BKN240=



000
FTUS42 KGSP 260723 AAA
TAFCLT
TAF AMD
KCLT 260723Z 2607/2706 01007KT 6SM -RA BR FEW007 SCT016 OVC035
      TEMPO 2608/2610 3SM RA BR BKN008 OVC014
     FM261000 35011KT 3SM -RA BR OVC008
     FM261500 33009KT 4SM -RA BR OVC014
     FM261800 30008KT P6SM OVC050
     FM270100 21004KT P6SM BKN240=



000
FTUS42 KGSP 260723 AAA
TAFCLT
TAF AMD
KCLT 260723Z 2607/2706 01007KT 6SM -RA BR FEW007 SCT016 OVC035
      TEMPO 2608/2610 3SM RA BR BKN008 OVC014
     FM261000 35011KT 3SM -RA BR OVC008
     FM261500 33009KT 4SM -RA BR OVC014
     FM261800 30008KT P6SM OVC050
     FM270100 21004KT P6SM BKN240=



000
FTUS42 KGSP 260552 CCA
TAFCLT
TAF COR
KCLT 260552Z 2606/2706 01007KT 4SM -RA BR FEW007 OVC015
      TEMPO 2606/2609 2SM RA BR BKN008 OVC014
     FM260900 35011KT 3SM -RA BR OVC008
     FM261500 33009KT 4SM -RA BR OVC014
     FM261800 30008KT P6SM OVC050
     FM270100 21004KT P6SM BKN240=



000
FTUS42 KGSP 260552 CCA
TAFCLT
TAF COR
KCLT 260552Z 2606/2706 01007KT 4SM -RA BR FEW007 OVC015
      TEMPO 2606/2609 2SM RA BR BKN008 OVC014
     FM260900 35011KT 3SM -RA BR OVC008
     FM261500 33009KT 4SM -RA BR OVC014
     FM261800 30008KT P6SM OVC050
     FM270100 21004KT P6SM BKN240=



000
FTUS42 KGSP 260540
TAFAVL
TAF
KAVL 260540Z 2606/2706 VRB03KT P6SM -RA OVC050
     FM260800 32006KT 4SM -RA OVC027
     FM261000 32007KT 3SM -RASN BR OVC014
      TEMPO 2610/2612 2SM RASN SCT007 OVC012
     FM261600 31008KT P6SM OVC045
     FM262300 32004KT P6SM BKN060=



000
FTUS42 KGSP 260540
TAFGSP
TAF
KGSP 260540Z 2606/2706 36007KT 6SM -RA BR SCT025 OVC050
      TEMPO 2606/2608 3SM RA BR BKN022 OVC040
     FM260800 33008KT 3SM -RA BR OVC027
     FM261000 34007KT 3SM -RA BR OVC015
      TEMPO 2610/2612 2SM RA BR
     FM261600 30007KT P6SM -RA OVC045
     FM261700 29005KT P6SM BKN050=



000
FTUS42 KGSP 260540
TAFCLT
TAF
KCLT 260540Z 2606/2706 01007KT 4SM -RA BR OVC015
      TEMPO 2608/2611 2SM RA BR BKN008 OVC014
     FM261100 35011KT 3SM -RA BR OVC008
     FM261500 33009KT 4SM -RA BR OVC014
     FM261800 30008KT P6SM OVC050
     FM270100 21004KT P6SM BKN240=



000
FTUS42 KGSP 260540
TAFAVL
TAF
KAVL 260540Z 2606/2706 VRB03KT P6SM -RA OVC050
     FM260800 32006KT 4SM -RA OVC027
     FM261000 32007KT 3SM -RASN BR OVC014
      TEMPO 2610/2612 2SM RASN SCT007 OVC012
     FM261600 31008KT P6SM OVC045
     FM262300 32004KT P6SM BKN060=



000
FTUS42 KGSP 260540
TAFCLT
TAF
KCLT 260540Z 2606/2706 01007KT 4SM -RA BR OVC015
      TEMPO 2608/2611 2SM RA BR BKN008 OVC014
     FM261100 35011KT 3SM -RA BR OVC008
     FM261500 33009KT 4SM -RA BR OVC014
     FM261800 30008KT P6SM OVC050
     FM270100 21004KT P6SM BKN240=



000
FTUS42 KGSP 260414 AAE
TAFCLT
TAF AMD
KCLT 260414Z 2604/2624 04005KT P6SM -RA FEW025 BKN040 OVC070
     FM260500 02004KT 6SM -RA BKN025 OVC060
     FM260700 02010KT 4SM -RA BR OVC017
      TEMPO 2610/2614 3SM -RA BR BKN009 OVC012
     FM261400 34011KT 4SM -RA BR OVC012
     FM261900 29007KT P6SM OVC045=



000
FTUS42 KGSP 260414 AAE
TAFCLT
TAF AMD
KCLT 260414Z 2604/2624 04005KT P6SM -RA FEW025 BKN040 OVC070
     FM260500 02004KT 6SM -RA BKN025 OVC060
     FM260700 02010KT 4SM -RA BR OVC017
      TEMPO 2610/2614 3SM -RA BR BKN009 OVC012
     FM261400 34011KT 4SM -RA BR OVC012
     FM261900 29007KT P6SM OVC045=



000
FTUS42 KGSP 260414 AAE
TAFCLT
TAF AMD
KCLT 260414Z 2604/2624 04005KT P6SM -RA FEW025 BKN040 OVC070
     FM260500 02004KT 6SM -RA BKN025 OVC060
     FM260700 02010KT 4SM -RA BR OVC017
      TEMPO 2610/2614 3SM -RA BR BKN009 OVC012
     FM261400 34011KT 4SM -RA BR OVC012
     FM261900 29007KT P6SM OVC045=



000
FTUS42 KGSP 260414 AAE
TAFCLT
TAF AMD
KCLT 260414Z 2604/2624 04005KT P6SM -RA FEW025 BKN040 OVC070
     FM260500 02004KT 6SM -RA BKN025 OVC060
     FM260700 02010KT 4SM -RA BR OVC017
      TEMPO 2610/2614 3SM -RA BR BKN009 OVC012
     FM261400 34011KT 4SM -RA BR OVC012
     FM261900 29007KT P6SM OVC045=



000
FTUS42 KGSP 260237 AAD
TAFCLT
TAF AMD
KCLT 260237Z 2603/2624 04005KT P6SM -RA FEW025 BKN040 OVC070
     FM260400 02004KT P6SM -RA BKN025 OVC060
     FM260600 02010KT 4SM -RA BR OVC017
      TEMPO 2610/2614 3SM -RA BR BKN009 OVC012
     FM261400 34011KT 4SM -RA BR OVC012
     FM261900 29007KT P6SM OVC045=



000
FTUS42 KGSP 260237 AAD
TAFCLT
TAF AMD
KCLT 260237Z 2603/2624 04005KT P6SM -RA FEW025 BKN040 OVC070
     FM260400 02004KT P6SM -RA BKN025 OVC060
     FM260600 02010KT 4SM -RA BR OVC017
      TEMPO 2610/2614 3SM -RA BR BKN009 OVC012
     FM261400 34011KT 4SM -RA BR OVC012
     FM261900 29007KT P6SM OVC045=



000
FTUS42 KGSP 252344 CCA
TAFAVL
TAF COR
KAVL 252344Z 2600/2624 35004KT P6SM -RA OVC070
     FM260700 32008KT 4SM -RASN BR OVC040
     FM260900 34006KT 3SM -SN OVC020
     FM261300 33004KT 4SM -SN BR OVC011
     FM261500 33006KT 4SM -RASN BR OVC014
     FM261700 35008KT P6SM OVC080=



000
FTUS42 KGSP 252344 CCA
TAFAVL
TAF COR
KAVL 252344Z 2600/2624 35004KT P6SM -RA OVC070
     FM260700 32008KT 4SM -RASN BR OVC040
     FM260900 34006KT 3SM -SN OVC020
     FM261300 33004KT 4SM -SN BR OVC011
     FM261500 33006KT 4SM -RASN BR OVC014
     FM261700 35008KT P6SM OVC080=



000
FTUS42 KGSP 252340 AAA
TAFAVL
TAF AMD
KAVL 252340Z 2600/2624 35004KT P6SM -RA OVC070
     FM260700 32008KT 4SM -RASN BR OVC040
     FM260800 33008KT 3SM -SN BR OVC035
     FM261000 34006KT P6SM -SN OVC022
     FM261300 31004KT 4SM -SN BR OVC011
     FM261500 30006KT 4SM -RASN BR OVC014
     FM261700 31008KT P6SM OVC080
     FM262300 32004KT P6SM BKN150=



000
FTUS42 KGSP 252340 AAC
TAFCLT
TAF AMD
KCLT 252340Z 2600/2624 03006KT P6SM VCSH FEW025 BKN040 OVC100
     FM260200 02004KT P6SM -RA BKN025 OVC060
     FM260600 02010KT 4SM -RA BR OVC017
      TEMPO 2610/2614 3SM -RA BR BKN009 OVC012
     FM261400 34011KT 4SM -RA BR OVC012
     FM261900 29007KT P6SM OVC045=



000
FTUS42 KGSP 252340 AAA
TAFAVL
TAF AMD
KAVL 252340Z 2600/2624 35004KT P6SM -RA OVC070
     FM260700 32008KT 4SM -RASN BR OVC040
     FM260800 33008KT 3SM -SN BR OVC035
     FM261000 34006KT P6SM -SN OVC022
     FM261300 31004KT 4SM -SN BR OVC011
     FM261500 30006KT 4SM -RASN BR OVC014
     FM261700 31008KT P6SM OVC080
     FM262300 32004KT P6SM BKN150=



000
FTUS42 KGSP 252340 AAC
TAFCLT
TAF AMD
KCLT 252340Z 2600/2624 03006KT P6SM VCSH FEW025 BKN040 OVC100
     FM260200 02004KT P6SM -RA BKN025 OVC060
     FM260600 02010KT 4SM -RA BR OVC017
      TEMPO 2610/2614 3SM -RA BR BKN009 OVC012
     FM261400 34011KT 4SM -RA BR OVC012
     FM261900 29007KT P6SM OVC045=



000
FTUS42 KGSP 252340 AAC
TAFGSP
TAF AMD
KGSP 252340Z 2600/2624 03004KT P6SM OVC150
     FM260400 36005KT P6SM -RA OVC050
     FM260800 34007KT 3SM -RA BR OVC020
     FM261200 35004KT 4SM -RA BR OVC009
     FM261500 31008KT 6SM -RA BR OVC016
     FM261700 29005KT P6SM BKN060=



000
FTUS42 KGSP 252117 AAB
TAFCLT
TAF AMD
KCLT 252117Z 2521/2618 01005KT P6SM SCT030 OVC100
     FM252300 05007KT P6SM OVC035
     FM260200 02008KT 6SM -RA BR OVC020
     FM260800 35010KT 3SM RA BR OVC007=



000
FTUS42 KGSP 252117 AAB
TAFCLT
TAF AMD
KCLT 252117Z 2521/2618 01005KT P6SM SCT030 OVC100
     FM252300 05007KT P6SM OVC035
     FM260200 02008KT 6SM -RA BR OVC020
     FM260800 35010KT 3SM RA BR OVC007=



    US Dept of Commerce
    National Oceanic and Atmospheric Administration
    National Weather Service
    1325 East West Highway
    Silver Spring, MD 20910
    Page Author: NWS Internet Services Team
Disclaimer
Information Quality
Credits
Glossary
Privacy Policy
Freedom of Information Act (FOIA)
About Us
Career Opportunities